• Join FlightAware (Why Join?)
  • Login
  • US Flag 
08:39PM EDT


 

Airport Tracker/Info


-or-


 

Live Flight TrackerFlight Track Log ✈ N7219U ✈ 16-May-2013 ✈ KDNN - KSPA

Flight Track Log - Related Links

Times and Time Zones

All times are in EDT time to prevent confusion due to time zone crossing. See the N7219U flight status page for this flight to view local times or setup timezone preferences in your user account.

Time Position Orientation Groundspeed Altitude Reporting Facility
EDT Latitude Longitude Course Direction KTS MPH feet Rate Location/Type
09:00AM 34.8078 -84.8786 73° East 118 136 4,500  Level Atlanta Center
09:01AM 34.8081 -84.8356 90° East 130 150 5,200 600 Climbing Atlanta Center
09:02AM 34.8103 -84.7978 86° East 126 145 5,800 600 Climbing Atlanta Center
09:03AM 34.7333 -84.5807 90° East  Level FlightAware Approximate
09:03AM 34.8128 -84.7522 86° East 126 145 6,500  Level Atlanta Center
09:04AM 34.7335 -84.5328 73° East  Level FlightAware Approximate
09:04AM 34.8150 -84.7117 86° East 121 139 7,000  Level Atlanta Center
09:05AM 34.7449 -84.4870 73° East  Level FlightAware Approximate
09:05AM 34.8175 -84.6661 86° East 121 139 7,600  Level Atlanta Center
09:06AM 34.8197 -84.6283 86° East 121 139 8,200 480 Climbing Atlanta Center
09:07AM 34.8219 -84.5828 87° East 121 139 8,600 360 Climbing Atlanta Center
09:08AM 34.8222 -84.5397 90° East 121 139 9,000 180 Climbing Atlanta Center
09:09AM 34.8244 -84.4764 88° East 149 171 9,000  Level Atlanta Center
09:10AM 34.8267 -84.4283 87° East 158 182 9,000  Level Atlanta Center
09:11AM 34.8289 -84.3703 87° East 167 192 9,000  Level Atlanta Center
09:12AM 34.8333 -84.3119 85° East 167 192 9,000  Level Atlanta Center
09:13AM 34.8356 -84.2464 88° East 179 206 9,000  Level Atlanta Center
09:14AM 34.8356 -84.1931 90° East 179 206 9,000  Level Atlanta Center
09:15AM 34.8356 -84.1375 90° East 174 200 9,000  Level Atlanta Center
09:16AM 34.8397 -84.0792 85° East 174 200 9,000  Level Atlanta Center
09:17AM 34.8419 -84.0236 87° East 174 200 9,000  Level Atlanta Center
09:18AM 34.8439 -83.9628 88° East 174 200 9,000  Level Atlanta Center
09:19AM 34.8481 -83.9072 85° East 174 200 9,000  Level Atlanta Center
09:20AM 34.8500 -83.8414 88° East 179 206 9,100  Climbing Atlanta Center
09:21AM 34.8542 -83.7831 85° East 174 200 9,100  Level Atlanta Center
09:22AM 34.8561 -83.7250 88° East 174 200 9,100  Level Atlanta Center
09:23AM 34.8581 -83.6667 88° East 174 200 9,100  Level Atlanta Center
09:24AM 34.8600 -83.6083 88° East 174 200 9,100  Level Atlanta Center
09:25AM 34.8639 -83.5478 86° East 179 206 9,100  Level Atlanta Center
09:26AM 34.8636 -83.4894 90° East 179 206 9,100  Level Atlanta Center
09:27AM 34.8633 -83.4364 90° East 173 199 9,100  Level Atlanta Center
09:28AM 34.8653 -83.3706 88° East 173 199 9,100  Level Atlanta Center
09:29AM 34.8711 -83.3047 84° East 178 205 9,100  Level Atlanta Center
09:30AM 34.8728 -83.2464 88° East 183 211 9,100 -60 Level Atlanta Center
09:31AM 34.8744 -83.1881 88° East 172 198 9,000 -300 Descending Atlanta Center
09:32AM 34.8739 -83.1247 91° East 179 206 8,600 -480 Descending Atlanta Center
09:33AM 34.8756 -83.0564 88° East 184 212 8,100 -300 Descending Atlanta Center
09:34AM 34.8772 -82.9931 88° East 184 212 8,100  Level Atlanta Center
09:35AM 34.8808 -82.9400 85° East 177 204 8,100 -60 Level Atlanta Center
09:36AM 34.8825 -82.8792 88° East 172 198 8,000 -120 Descending Atlanta Center
09:37AM 34.8858 -82.8183 86° East 172 198 7,900 -300 Descending Atlanta Center
09:38AM 34.8686 -82.7578 109° East 177 204 7,500 -360 Descending Atlanta Center
09:39AM 34.8514 -82.7022 111° Southeast 182 209 7,200 -300 Descending Atlanta Center
09:40AM 34.8339 -82.6394 109° East 187 215 7,000 -120 Descending Atlanta Center
09:41AM 34.8189 -82.5889 110° East 187 215 7,000  Level Atlanta Center
09:42AM 34.8056 -82.5261 104° East 187 215 7,000  Level Atlanta Center
09:44AM 34.8208 -82.4484 90° East  Level Estimated
09:51AM 34.8931 -82.1288 87° East  Level FlightAware Approximate
09:52AM 34.8952 -82.0809 87° East  Level FlightAware Approximate
09:53AM 34.8972 -82.0330 87° East  Level FlightAware Approximate
09:54AM 34.8992 -81.9851 87° East  Level FlightAware Approximate
09:55AM 34.9000 -81.9500 90° East  Level FlightAware Approximate
09:56AM 34.9157 -81.9565 90° East  Level Estimated
09:57AM 34.9157 -81.9565 90° East  Level Estimated